Terminal Aerodrome Forecast
Issued by NWS Norman, OK

Home | Current Version | Previous Version | Text Only | Print | Product List | Glossary On
Versions: 1 2 3 4 5 6 7 8 9 10 11 12 13 14
000
FTUS44 KOUN 032320
TAFSPS
TAF
KSPS 032320Z 0400/0424 08009KT 3SM -DZ OVC005
     FM040500 07006KT 1SM -DZ BR OVC004
      TEMPO 0410/0414 1/2SM FG
     FM041400 35008KT 3SM BR BKN007 OVC012
     FM041600 35009KT P6SM BKN030
     FM041800 36010KT P6SM SCT030=

USA.gov is the U.S. government's official web portal to all federal, state and local government web resources and services.